Cherry Point Marine Corps Ai, North Carolina
Current Conditions -  °F | °C
As of 10:54 AM on Thursday 30 Oct 2014 (Local Time) from KNKT Reporting Station
Broken Clouds Broken Clouds  
Wind Chill: 61°   Ceiling: 1500
Heat Index: 61°   Visibility: 10mi
Dew Point: 53°   Wind: 16mph
Humidity: 75%   Direction: 30°NNE
Pressure: 30.02"   Gusts: 22mph
Location:  34.8973°N, 76.9091°W
Report Text: KNKT 301454Z 03014G19KT 10SM BKN015 BKN110 16/12 A3002 RMK AO2 SLP163 60000 T01610117 51008 $
Loading
Personal Weather Stations






























Interactive Weather Map New forecast layout! Learn more

10-Day Weather Forecast

Advertisements
Track Severe Weather on mobile